Time;durP1;ratioP1;P1;durP2;ratioP2;P2;SDS_P1;SDS_P2;PMS_P1;PMS_P2;Temp;Humidity;BMP_temperature;BMP_pressure;BME280_temperature;BME280_humidity;BME280_pressure;Samples;Min_cycle;Max_cycle;Signal;HPM_P1;HPM_P2
2023/10/23 00:00:03;;;;;;;;;11.25;11.25;;;;;9.97;86.17;101248.13;4972167;28;10634;-67
2023/10/23 00:02:38;;;;;;;;;13.75;11.25;;;;;9.97;86.41;101249.97;4972236;28;10697;-67
2023/10/23 00:05:05;;;;;;;;;10.00;9.00;;;;;9.93;86.38;101251.34;4970912;28;10543;-67
2023/10/23 00:07:32;;;;;;;;;10.75;10.50;;;;;9.90;86.12;101260.59;4971678;28;11266;-66
2023/10/23 00:09:59;;;;;;;;;13.50;11.50;;;;;9.87;86.15;101245.66;4972029;28;10760;-67
2023/10/23 00:12:25;;;;;;;;;12.75;12.75;;;;;9.84;86.36;101255.91;4972100;28;10812;-67
2023/10/23 00:14:52;;;;;;;;;11.75;10.75;;;;;9.83;85.91;101251.56;4972012;28;10812;-67
2023/10/23 00:17:18;;;;;;;;;11.75;10.25;;;;;9.80;86.12;101250.09;4971627;28;10730;-67
2023/10/23 00:19:45;;;;;;;;;11.75;9.75;;;;;9.78;86.10;101246.72;4954657;28;10647;-67
2023/10/23 00:22:11;;;;;;;;;12.75;9.75;;;;;9.78;86.16;101253.97;4971716;28;10717;-67
2023/10/23 00:24:38;;;;;;;;;10.25;9.25;;;;;9.78;86.57;101253.97;4971674;28;10744;-67
2023/10/23 00:27:05;;;;;;;;;13.50;11.25;;;;;9.78;86.23;101249.44;4954233;28;10789;-66
2023/10/23 00:29:31;;;;;;;;;11.25;10.00;;;;;9.77;86.24;101250.44;4970381;28;10882;-67
2023/10/23 00:31:58;;;;;;;;;9.00;9.00;;;;;9.73;86.10;101243.75;4954265;28;10653;-67
2023/10/23 00:34:24;;;;;;;;;10.00;9.75;;;;;9.74;86.46;101249.97;4954362;28;10515;-67
2023/10/23 00:36:51;;;;;;;;;11.75;10.75;;;;;9.71;86.42;101245.75;4971192;28;10783;-66
2023/10/23 00:39:17;;;;;;;;;10.75;10.75;;;;;9.69;86.36;101241.59;4970271;28;11376;-67
2023/10/23 00:41:44;;;;;;;;;10.00;7.75;;;;;9.68;86.26;101246.13;4971588;28;10642;-67
2023/10/23 00:44:12;;;;;;;;;11.00;10.75;;;;;9.66;86.28;101253.53;4969915;28;10630;-67
2023/10/23 00:46:38;;;;;;;;;10.25;10.25;;;;;9.62;86.18;101245.00;4969844;28;10694;-66
2023/10/23 00:49:05;;;;;;;;;9.50;9.00;;;;;9.59;86.12;101248.03;4969970;28;10800;-66
2023/10/23 00:51:32;;;;;;;;;8.25;7.75;;;;;9.59;86.16;101249.88;4971344;28;10688;-67
2023/10/23 00:54:02;;;;;;;;;15.00;13.50;;;;;9.59;86.16;101252.56;4971401;28;10712;-67
2023/10/23 00:56:29;;;;;;;;;15.50;13.75;;;;;9.54;86.29;101254.97;4953558;28;10753;-66
2023/10/23 00:58:57;;;;;;;;;11.50;9.75;;;;;9.52;86.29;101252.47;4971046;28;11472;-66
2023/10/23 01:01:25;;;;;;;;;11.75;11.75;;;;;9.50;86.33;101262.53;4969717;28;10891;-66
2023/10/23 01:03:51;;;;;;;;;10.25;9.00;;;;;9.51;86.28;101261.50;4953457;28;10948;-67
2023/10/23 01:06:18;;;;;;;;;13.75;12.50;;;;;9.50;86.11;101267.91;4966089;28;10589;-66
2023/10/23 01:08:44;;;;;;;;;10.50;8.75;;;;;9.48;86.15;101261.91;4949992;28;10811;-66
2023/10/23 01:11:11;;;;;;;;;12.00;10.25;;;;;9.47;86.33;101254.00;4966628;28;10783;-67
2023/10/23 01:13:38;;;;;;;;;13.25;12.25;;;;;9.44;86.21;101260.56;4951688;28;10828;-67
2023/10/23 01:16:05;;;;;;;;;12.50;11.25;;;;;9.41;86.14;101261.75;4951371;28;10836;-66
2023/10/23 01:18:32;;;;;;;;;12.75;10.00;;;;;9.38;85.89;101259.41;4950154;28;11498;-67
2023/10/23 01:20:58;;;;;;;;;10.00;10.00;;;;;9.37;86.29;101263.13;4951735;28;10941;-67
2023/10/23 01:23:27;;;;;;;;;9.00;9.00;;;;;9.38;86.12;101258.56;4951440;28;10788;-67
2023/10/23 01:25:54;;;;;;;;;10.50;10.50;;;;;9.40;86.40;101256.56;4950097;28;10782;-66
2023/10/23 01:28:20;;;;;;;;;7.00;6.25;;;;;9.37;86.00;101265.81;4965906;28;10804;-66
2023/10/23 01:30:47;;;;;;;;;12.25;10.25;;;;;9.35;86.03;101261.59;4965976;28;10665;-67
2023/10/23 01:33:15;;;;;;;;;9.25;8.50;;;;;9.31;85.70;101266.50;4950141;28;10890;-67
2023/10/23 01:35:41;;;;;;;;;13.50;10.50;;;;;9.30;85.81;101270.19;4951436;28;10703;-67
2023/10/23 01:38:08;;;;;;;;;9.00;8.00;;;;;9.29;85.66;101279.28;4965979;28;10794;-67
2023/10/23 01:40:34;;;;;;;;;10.75;10.25;;;;;9.26;85.63;101271.56;4966091;28;10896;-67
2023/10/23 01:43:01;;;;;;;;;13.50;12.00;;;;;9.24;85.90;101276.28;4951225;28;10910;-66
2023/10/23 01:45:27;;;;;;;;;12.75;10.75;;;;;9.22;85.93;101278.28;4951085;28;10787;-66
2023/10/23 01:47:53;;;;;;;;;14.75;10.75;;;;;9.21;85.96;101287.38;4965605;28;10950;-67
2023/10/23 01:50:20;;;;;;;;;11.25;11.00;;;;;9.18;86.00;101279.66;4966009;28;11003;-67
2023/10/23 01:52:49;;;;;;;;;11.50;11.25;;;;;9.17;86.33;101288.72;4966048;28;10862;-66
2023/10/23 01:55:16;;;;;;;;;9.25;9.25;;;;;9.18;85.99;101286.88;4951161;28;10788;-66
2023/10/23 01:57:44;;;;;;;;;12.25;12.25;;;;;9.19;86.04;101286.69;4950682;28;10872;-66
2023/10/23 02:00:12;;;;;;;;;11.50;11.50;;;;;9.21;86.26;101276.63;4949936;29;10870;-67
2023/10/23 02:02:39;;;;;;;;;10.00;9.00;;;;;9.22;86.17;101272.91;4949849;29;10786;-66
2023/10/23 02:05:06;;;;;;;;;14.50;11.50;;;;;9.24;86.14;101281.66;4951091;28;10837;-66
2023/10/23 02:07:32;;;;;;;;;11.75;9.50;;;;;9.22;86.29;101277.47;4965631;28;10923;-67
2023/10/23 02:10:00;;;;;;;;;11.00;11.00;;;;;9.18;85.92;101281.50;4953084;28;10917;-66
2023/10/23 02:12:26;;;;;;;;;13.50;12.50;;;;;9.16;85.94;101293.28;4970227;28;10824;-67
2023/10/23 02:14:53;;;;;;;;;11.00;11.00;;;;;9.13;85.85;101295.47;4970237;28;10950;-66
2023/10/23 02:17:20;;;;;;;;;14.50;14.50;;;;;9.10;86.06;101293.94;4969866;28;10984;-67
2023/10/23 02:19:48;;;;;;;;;14.75;14.25;;;;;9.10;86.25;101293.13;4954130;28;11141;-67
2023/10/23 02:22:15;;;;;;;;;13.25;11.00;;;;;9.09;86.11;101294.97;4956606;28;10922;-66
2023/10/23 02:24:41;;;;;;;;;13.75;11.50;;;;;9.08;86.38;101287.94;4973871;28;10956;-66
2023/10/23 02:27:08;;;;;;;;;10.00;9.00;;;;;9.07;86.13;101291.59;4955968;28;11002;-66
2023/10/23 02:29:34;;;;;;;;;10.75;10.00;;;;;9.06;86.27;101295.31;4972683;28;10983;-67
2023/10/23 02:32:01;;;;;;;;;16.00;13.75;;;;;9.05;85.89;101303.53;4973883;28;10936;-67
2023/10/23 02:34:28;;;;;;;;;14.25;11.50;;;;;9.02;86.29;101299.34;4973683;28;11037;-67
2023/10/23 02:36:55;;;;;;;;;15.00;14.25;;;;;8.99;86.17;101293.47;4972234;28;11029;-66
2023/10/23 02:39:22;;;;;;;;;16.75;14.00;;;;;8.98;86.19;101297.19;4972194;28;10956;-66
2023/10/23 02:41:49;;;;;;;;;15.00;12.00;;;;;8.98;86.37;101305.25;4973558;28;11227;-67
2023/10/23 02:44:16;;;;;;;;;13.25;12.75;;;;;8.95;86.35;101310.94;4956192;28;11153;-66
2023/10/23 02:46:42;;;;;;;;;14.50;13.25;;;;;8.93;86.43;101316.50;4973446;28;11137;-66
2023/10/23 02:49:09;;;;;;;;;13.00;11.00;;;;;8.90;86.46;101312.31;4956012;28;11143;-67
2023/10/23 02:51:38;;;;;;;;;15.00;13.75;;;;;8.90;86.11;101317.66;4973461;28;11030;-66
2023/10/23 02:54:04;;;;;;;;;14.50;11.75;;;;;8.91;86.08;101310.44;4972028;28;10971;-67
2023/10/23 02:56:32;;;;;;;;;15.50;13.75;;;;;8.89;86.32;101305.25;4972849;28;11752;-66
2023/10/23 02:58:59;;;;;;;;;14.50;11.00;;;;;8.89;86.30;101299.91;4955824;28;11012;-66
2023/10/23 03:01:25;;;;;;;;;14.00;12.50;;;;;8.90;86.44;101293.50;4971894;28;11111;-67
2023/10/23 03:03:52;;;;;;;;;8.50;8.25;;;;;8.90;86.29;101284.63;4955860;28;11021;-67
2023/10/23 03:06:20;;;;;;;;;13.00;13.00;;;;;8.86;86.25;101291.34;4968188;28;10802;-67
2023/10/23 03:08:46;;;;;;;;;15.50;13.50;;;;;8.84;86.07;101299.59;4953648;28;11032;-66
2023/10/23 03:11:13;;;;;;;;;14.50;11.75;;;;;8.84;86.16;101304.13;4953813;28;10979;-66
2023/10/23 03:13:39;;;;;;;;;13.50;11.00;;;;;8.83;86.61;101311.34;4953572;28;11049;-66
2023/10/23 03:16:07;;;;;;;;;11.00;10.25;;;;;8.83;86.42;101313.16;4968223;28;10969;-66
2023/10/23 03:18:34;;;;;;;;;11.25;10.00;;;;;8.83;86.59;101305.09;4953856;28;11030;-66
2023/10/23 03:21:01;;;;;;;;;14.75;11.50;;;;;8.81;86.31;101299.91;4953658;28;11592;-66
2023/10/23 03:23:28;;;;;;;;;10.00;9.00;;;;;8.80;86.40;101306.31;4953443;28;11141;-66
2023/10/23 03:25:56;;;;;;;;;11.25;11.25;;;;;8.78;86.32;101300.25;4953231;28;11125;-66
2023/10/23 03:28:22;;;;;;;;;9.75;9.75;;;;;8.78;86.33;101294.88;4967978;28;11180;-67
2023/10/23 03:30:49;;;;;;;;;14.00;10.50;;;;;8.76;85.99;101299.59;4953126;28;10984;-66
2023/10/23 03:33:15;;;;;;;;;12.50;11.00;;;;;8.75;86.38;101302.44;4968038;28;10960;-67
2023/10/23 03:35:43;;;;;;;;;10.25;9.50;;;;;8.75;86.40;101311.34;4953077;28;11119;-66
2023/10/23 03:38:09;;;;;;;;;11.75;11.00;;;;;8.74;86.52;101300.78;4951778;28;10816;-66
2023/10/23 03:40:36;;;;;;;;;10.75;10.75;;;;;8.71;86.28;101307.34;4953344;28;10880;-66
2023/10/23 03:43:02;;;;;;;;;13.75;12.75;;;;;8.69;86.04;101306.66;4953304;28;10889;-66
2023/10/23 03:45:29;;;;;;;;;17.00;13.00;;;;;8.68;86.50;101309.53;4953170;28;10981;-67
2023/10/23 03:47:55;;;;;;;;;14.75;14.00;;;;;8.68;86.88;101307.66;4952806;28;11101;-66
2023/10/23 03:50:22;;;;;;;;;16.00;13.50;;;;;8.67;86.38;101316.75;4953113;28;11135;-66
2023/10/23 03:52:49;;;;;;;;;11.50;10.75;;;;;8.66;86.60;101313.19;4953161;28;10871;-67
2023/10/23 03:55:15;;;;;;;;;16.50;13.00;;;;;8.65;86.05;101318.75;4952909;28;11909;-67
2023/10/23 03:57:42;;;;;;;;;10.50;9.75;;;;;8.65;86.61;101313.38;4952656;28;11036;-67
2023/10/23 04:00:10;;;;;;;;;11.25;10.50;;;;;8.64;86.29;101325.13;4953001;28;11837;-66
2023/10/23 04:02:39;;;;;;;;;14.25;11.75;;;;;8.64;86.55;101317.06;4952809;28;11190;-67
2023/10/23 04:05:06;;;;;;;;;12.25;11.00;;;;;8.64;86.72;101317.06;4952547;28;11073;-66
2023/10/23 04:07:32;;;;;;;;;15.00;13.25;;;;;8.64;86.64;101322.44;4967471;28;11068;-66
2023/10/23 04:09:59;;;;;;;;;13.50;13.50;;;;;8.62;86.68;101327.94;4952736;28;11120;-66
2023/10/23 04:12:26;;;;;;;;;11.75;9.50;;;;;8.61;86.37;101322.75;4952683;28;11826;-67
2023/10/23 04:14:52;;;;;;;;;11.75;11.75;;;;;8.60;86.61;101326.47;4952620;28;11200;-66
2023/10/23 04:17:18;;;;;;;;;10.00;9.50;;;;;8.59;86.24;101319.44;4952073;28;11205;-67
2023/10/23 04:19:48;;;;;;;;;10.50;10.50;;;;;8.59;86.91;101325.63;4952407;28;10890;-66
2023/10/23 04:22:14;;;;;;;;;16.50;14.00;;;;;8.58;86.51;101323.09;4952651;28;11149;-66
2023/10/23 04:24:41;;;;;;;;;10.00;10.00;;;;;8.58;87.04;101317.72;4952297;28;11164;-66
2023/10/23 04:27:07;;;;;;;;;11.75;10.75;;;;;8.56;86.64;101317.91;4952216;28;10941;-66
2023/10/23 04:29:34;;;;;;;;;10.00;10.00;;;;;8.59;86.95;101314.06;4952349;28;10950;-66
2023/10/23 04:32:00;;;;;;;;;13.00;12.25;;;;;8.58;87.05;101307.84;4952018;28;11020;-67
2023/10/23 04:34:27;;;;;;;;;16.50;15.00;;;;;8.55;86.27;101302.81;4952340;28;11019;-66
2023/10/23 04:36:53;;;;;;;;;10.75;10.75;;;;;8.54;86.84;101311.84;4950570;28;11140;-67
2023/10/23 04:39:20;;;;;;;;;14.00;14.00;;;;;8.53;86.66;101307.50;4952321;28;11052;-66
2023/10/23 04:41:47;;;;;;;;;14.75;13.00;;;;;8.50;86.62;101302.47;4951858;28;11131;-67
2023/10/23 04:44:13;;;;;;;;;10.75;10.00;;;;;8.49;86.75;101299.97;4952140;28;10974;-66
2023/10/23 04:46:41;;;;;;;;;12.50;11.00;;;;;8.47;86.96;101302.84;4951417;28;11028;-66
2023/10/23 04:49:07;;;;;;;;;11.00;11.00;;;;;8.47;87.11;101294.78;4952032;28;10946;-66
2023/10/23 04:51:34;;;;;;;;;15.75;13.75;;;;;8.47;86.80;101302.84;4951965;28;11120;-66
2023/10/23 04:54:01;;;;;;;;;16.75;15.00;;;;;8.48;86.89;101301.81;4952116;28;11139;-66
2023/10/23 04:56:27;;;;;;;;;10.50;10.50;;;;;8.48;86.77;101306.34;4982331;28;11092;-66
2023/10/23 04:58:53;;;;;;;;;13.75;11.50;;;;;8.48;86.74;101309.03;4951977;28;11124;-67
2023/10/23 05:01:22;;;;;;;;;17.00;15.25;;;;;8.47;86.70;101305.53;4951821;28;11031;-67
2023/10/23 05:03:48;;;;;;;;;13.25;11.00;;;;;8.47;86.68;101316.25;4951764;28;11082;-67
2023/10/23 05:06:24;;;;;;;;;12.00;12.00;;;;;8.49;87.13;101316.06;4956301;28;11444;-67
2023/10/23 05:08:51;;;;;;;;;13.00;11.50;;;;;8.50;86.99;101313.22;4970991;28;11813;-66
2023/10/23 05:11:18;;;;;;;;;18.25;13.50;;;;;8.54;87.38;101306.50;4971147;28;11236;-66
2023/10/23 05:13:47;;;;;;;;;14.50;13.75;;;;;8.57;87.13;101310.69;4970735;28;11069;-66
2023/10/23 05:16:13;;;;;;;;;13.75;12.75;;;;;8.61;87.06;101312.88;4970385;28;11125;-66
2023/10/23 05:18:40;;;;;;;;;14.25;11.00;;;;;8.66;88.00;101321.25;4970759;28;11057;-67
2023/10/23 05:21:07;;;;;;;;;13.25;11.00;;;;;8.77;88.63;101325.44;4970804;28;11780;-66
2023/10/23 05:23:33;;;;;;;;;10.00;10.00;;;;;8.85;88.83;101321.88;4970847;28;11678;-67
2023/10/23 05:26:01;;;;;;;;;16.50;16.00;;;;;8.91;89.04;101322.06;4970323;28;11080;-66
2023/10/23 05:28:27;;;;;;;;;14.75;13.25;;;;;9.00;89.48;101330.09;4970702;28;11010;-66
2023/10/23 05:30:54;;;;;;;;;14.25;13.50;;;;;9.05;89.56;101309.75;4970558;28;11089;-67
2023/10/23 05:33:20;;;;;;;;;14.00;13.75;;;;;9.09;90.07;101310.25;4970585;28;11056;-66
2023/10/23 05:35:47;;;;;;;;;17.75;16.25;;;;;9.13;90.41;101306.22;4970545;28;11139;-66
2023/10/23 05:38:13;;;;;;;;;14.00;14.00;;;;;9.16;90.68;101303.19;4970518;28;11846;-67
2023/10/23 05:40:39;;;;;;;;;14.25;12.00;;;;;9.19;91.00;101312.72;4970532;28;10891;-66
2023/10/23 05:43:06;;;;;;;;;11.75;11.75;;;;;9.20;91.09;101315.25;4970475;28;10885;-67
2023/10/23 05:45:36;;;;;;;;;14.75;14.50;;;;;9.20;91.23;101319.78;4970491;28;10976;-66
2023/10/23 05:48:02;;;;;;;;;10.25;10.25;;;;;9.17;90.75;101318.28;4970276;28;10887;-67
2023/10/23 05:50:29;;;;;;;;;15.25;14.75;;;;;9.15;91.54;101325.66;4970334;28;11039;-66
2023/10/23 05:52:55;;;;;;;;;11.75;11.75;;;;;9.15;92.08;101326.53;4970641;28;11001;-66
2023/10/23 05:55:23;;;;;;;;;11.25;10.25;;;;;9.15;91.57;101323.84;4976712;28;11591;-67
2023/10/23 05:57:50;;;;;;;;;13.50;13.50;;;;;9.16;91.71;101333.56;4976546;28;10891;-67
2023/10/23 06:00:16;;;;;;;;;12.75;12.75;;;;;9.17;91.97;101337.06;4976897;28;11751;-66
2023/10/23 06:02:43;;;;;;;;;16.25;14.50;;;;;9.13;91.78;101333.91;4976845;28;10870;-66
2023/10/23 06:05:09;;;;;;;;;13.50;11.25;;;;;9.12;92.01;101336.75;4976748;28;11021;-66
2023/10/23 06:07:36;;;;;;;;;19.75;18.50;;;;;9.10;91.41;101346.81;4976273;28;10887;-67
2023/10/23 06:10:03;;;;;;;;;16.00;14.25;;;;;9.09;92.02;101342.47;4976454;28;11020;-67
2023/10/23 06:12:30;;;;;;;;;14.75;13.50;;;;;9.06;92.13;101332.91;4976740;28;10873;-66
2023/10/23 06:14:58;;;;;;;;;17.50;15.00;;;;;9.02;92.08;101336.94;4976766;28;10738;-67
2023/10/23 06:17:25;;;;;;;;;16.75;14.75;;;;;9.01;92.87;101332.59;4976294;28;10945;-66
2023/10/23 06:19:52;;;;;;;;;14.75;14.00;;;;;9.03;93.16;101337.78;4976861;28;11593;-67
2023/10/23 06:22:18;;;;;;;;;14.75;13.50;;;;;9.01;92.42;101331.75;4976674;28;10931;-67
2023/10/23 06:24:45;;;;;;;;;10.00;10.00;;;;;9.04;93.20;101334.09;4976718;28;10897;-67
2023/10/23 06:27:11;;;;;;;;;7.75;4.75;;;;;9.08;93.67;101338.97;4976249;28;10832;-67
2023/10/23 06:29:38;;;;;;;;;19.50;15.00;;;;;9.08;92.93;101336.28;4976666;28;10692;-66
2023/10/23 06:32:05;;;;;;;;;12.25;11.25;;;;;9.10;93.32;101342.28;4976670;28;10800;-67
2023/10/23 06:34:32;;;;;;;;;13.75;11.50;;;;;9.12;93.33;101334.91;4976369;28;11415;-67
2023/10/23 06:36:58;;;;;;;;;11.50;9.75;;;;;9.13;93.30;101333.91;4975920;28;10841;-67
2023/10/23 06:39:25;;;;;;;;;9.50;9.50;;;;;9.14;93.46;101337.41;4976481;28;11561;-67
2023/10/23 06:41:52;;;;;;;;;10.00;10.00;;;;;9.12;93.67;101332.22;4976446;28;10702;-66
2023/10/23 06:44:19;;;;;;;;;12.25;11.00;;;;;9.13;93.67;101330.38;4976293;28;10723;-66
2023/10/23 06:46:46;;;;;;;;;11.00;9.25;;;;;9.14;93.46;101324.81;4975974;28;10561;-66
2023/10/23 06:49:12;;;;;;;;;13.25;10.50;;;;;9.17;93.59;101323.66;4959061;28;10885;-67
2023/10/23 06:51:39;;;;;;;;;13.50;11.00;;;;;9.19;93.35;101321.63;4976157;28;10726;-67
2023/10/23 06:54:05;;;;;;;;;8.50;8.50;;;;;9.20;93.65;101334.06;4976415;28;10787;-66
2023/10/23 06:56:32;;;;;;;;;11.00;11.00;;;;;9.24;93.64;101332.69;4976085;28;10644;-66
2023/10/23 06:58:58;;;;;;;;;10.00;9.00;;;;;9.24;93.39;101327.31;4976227;28;10659;-66
2023/10/23 07:01:25;;;;;;;;;12.00;11.00;;;;;9.26;92.99;101319.09;4976396;28;11206;-67
2023/10/23 07:04:03;;;;;;;;;11.75;11.00;;;;;9.26;93.48;101321.75;4976060;28;10802;-66
2023/10/23 07:06:30;;;;;;;;;12.50;11.25;;;;;9.26;93.45;101327.13;4972284;28;10910;-67
2023/10/23 07:08:56;;;;;;;;;11.50;11.50;;;;;9.29;93.52;101330.31;4973199;28;10726;-66
2023/10/23 07:11:23;;;;;;;;;9.50;8.75;;;;;9.30;93.15;101331.16;4973299;28;11357;-66
2023/10/23 07:13:49;;;;;;;;;9.75;9.00;;;;;9.29;93.28;101332.16;4973026;28;10737;-67
2023/10/23 07:16:16;;;;;;;;;12.50;10.50;;;;;9.25;93.14;101325.47;4955395;28;10710;-67
2023/10/23 07:18:42;;;;;;;;;12.25;11.50;;;;;9.25;93.35;101328.16;4972776;28;10793;-67
2023/10/23 07:21:09;;;;;;;;;9.50;9.50;;;;;9.27;93.46;101336.88;4973134;28;10903;-67
2023/10/23 07:23:36;;;;;;;;;11.25;10.25;;;;;9.29;94.09;101330.31;4972926;28;10669;-67
2023/10/23 07:26:03;;;;;;;;;11.25;11.25;;;;;9.33;93.59;101339.72;4972538;28;10858;-66
2023/10/23 07:28:29;;;;;;;;;11.25;11.25;;;;;9.33;94.03;101337.03;4973040;28;10726;-67
2023/10/23 07:30:56;;;;;;;;;17.00;15.50;;;;;9.33;93.86;101342.41;4972879;28;10728;-66
2023/10/23 07:33:22;;;;;;;;;21.00;15.75;;;;;9.32;93.62;101340.72;4972611;28;10796;-67
2023/10/23 07:35:59;;;;;;;;;14.50;14.50;;;;;9.31;93.66;101341.72;4972969;28;10844;-67
2023/10/23 07:38:25;;;;;;;;;13.25;11.25;;;;;9.29;93.32;101334.84;4972530;28;10737;-67
2023/10/23 07:40:52;;;;;;;;;10.75;10.75;;;;;9.26;94.20;101336.03;4972661;28;10819;-67
2023/10/23 07:43:18;;;;;;;;;13.75;13.75;;;;;9.28;94.54;101330.50;4972336;28;11577;-67
2023/10/23 07:45:45;;;;;;;;;14.50;11.00;;;;;9.25;94.84;101330.84;4971960;28;10951;-67
2023/10/23 07:48:14;;;;;;;;;18.75;17.75;;;;;9.26;94.80;101330.66;4971795;28;10664;-66
2023/10/23 07:50:40;;;;;;;;;14.50;12.25;;;;;9.30;94.81;101331.16;4972412;28;10992;-67
2023/10/23 07:53:07;;;;;;;;;14.50;12.50;;;;;9.33;94.71;101328.97;4972446;28;10928;-67
2023/10/23 07:55:36;;;;;;;;;15.50;14.00;;;;;9.35;95.06;101329.59;4972423;28;10684;-67
2023/10/23 07:58:03;;;;;;;;;17.50;17.50;;;;;9.38;95.19;101336.50;4971827;28;10957;-66
2023/10/23 08:00:30;;;;;;;;;12.25;11.50;;;;;9.37;94.90;101332.97;4972191;28;10842;-67
2023/10/23 08:02:56;;;;;;;;;13.00;11.00;;;;;9.38;94.57;101336.50;4972015;28;10699;-67
2023/10/23 08:05:23;;;;;;;;;11.00;10.75;;;;;9.39;95.12;101340.84;4972081;28;10633;-67
2023/10/23 08:07:50;;;;;;;;;16.00;12.50;;;;;9.35;94.89;101337.66;4971747;28;10602;-67
2023/10/23 08:10:17;;;;;;;;;13.75;13.50;;;;;9.34;95.49;101337.84;4972177;28;10741;-67
2023/10/23 08:12:46;;;;;;;;;14.50;13.50;;;;;9.34;95.46;101337.84;4972341;28;10673;-67
2023/10/23 08:15:12;;;;;;;;;16.25;15.25;;;;;9.31;95.17;101339.03;4972134;28;11309;-66
2023/10/23 08:17:39;;;;;;;;;14.00;14.00;;;;;9.31;95.56;101332.81;4970444;28;10587;-66
2023/10/23 08:20:09;;;;;;;;;17.50;17.50;;;;;9.32;95.80;101335.34;4971810;28;10633;-66
2023/10/23 08:22:35;;;;;;;;;14.25;14.25;;;;;9.31;95.86;101332.81;4971741;28;10564;-66
2023/10/23 08:25:02;;;;;;;;;13.00;12.75;;;;;9.34;96.27;101325.25;4971815;28;10719;-67
2023/10/23 08:27:30;;;;;;;;;16.25;16.00;;;;;9.36;96.37;101325.09;4971175;28;10782;-65
2023/10/23 08:29:56;;;;;;;;;16.00;15.25;;;;;9.40;96.26;101331.81;4971682;28;10641;-66
2023/10/23 08:32:23;;;;;;;;;13.25;11.75;;;;;9.44;96.23;101330.44;4971701;28;10717;-67
2023/10/23 08:35:03;;;;;;;;;12.75;12.50;;;;;9.45;96.22;101337.47;4971657;28;10626;-66
2023/10/23 08:37:29;;;;;;;;;15.75;15.00;;;;;9.49;96.46;101330.75;4971369;28;10776;-67
2023/10/23 08:39:56;;;;;;;;;11.50;10.75;;;;;9.54;96.18;101335.59;4971544;28;10728;-66
2023/10/23 08:42:22;;;;;;;;;17.25;13.75;;;;;9.56;96.17;101336.22;4971671;28;10568;-66
2023/10/23 08:44:50;;;;;;;;;15.00;15.00;;;;;9.55;96.02;101337.25;4971450;28;10781;-66
2023/10/23 08:47:17;;;;;;;;;13.75;13.75;;;;;9.55;96.66;101342.63;4970840;28;10829;-66
2023/10/23 08:49:44;;;;;;;;;15.25;12.25;;;;;9.59;96.99;101338.56;4971506;28;10648;-66
2023/10/23 08:52:10;;;;;;;;;13.25;13.25;;;;;9.65;96.63;101340.56;4971372;28;10733;-67
2023/10/23 08:54:39;;;;;;;;;19.25;13.50;;;;;9.69;96.83;101339.22;4971235;28;10828;-66
2023/10/23 08:57:06;;;;;;;;;18.25;15.25;;;;;9.72;96.81;101329.94;4971028;28;10816;-66
2023/10/23 08:59:33;;;;;;;;;15.00;13.50;;;;;9.71;96.63;101331.78;4971473;28;10810;-66
2023/10/23 09:01:59;;;;;;;;;16.00;13.00;;;;;9.75;96.44;101326.91;4953671;28;10653;-67
2023/10/23 09:04:28;;;;;;;;;15.75;15.75;;;;;9.72;96.69;101320.03;4971122;28;10845;-67
2023/10/23 09:06:56;;;;;;;;;19.25;17.50;;;;;9.73;96.82;101318.19;4970502;28;11368;-67
2023/10/23 09:09:23;;;;;;;;;16.75;15.00;;;;;9.65;96.62;101305.63;4970969;28;10769;-67
2023/10/23 09:11:50;;;;;;;;;21.25;20.00;;;;;9.63;96.24;101308.47;4970924;28;10729;-67
2023/10/23 09:14:35;;;;;;;;;19.50;16.75;;;;;9.59;96.11;101303.63;4970998;28;10891;-67
2023/10/23 09:17:05;;;;;;;;;23.00;18.25;;;;;9.49;96.93;101297.66;4970484;28;10734;-67
2023/10/23 09:19:36;;;;;;;;;15.25;13.75;;;;;9.53;98.33;101298.97;4970764;28;10657;-67
2023/10/23 09:22:06;;;;;;;;;18.75;17.50;;;;;9.59;98.16;101306.31;4970891;28;10726;-67
2023/10/23 09:24:33;;;;;;;;;16.50;15.75;;;;;9.66;98.39;101294.69;4970875;28;10562;-67
2023/10/23 09:26:59;;;;;;;;;14.50;12.25;;;;;9.72;98.29;101303.88;4970190;28;10740;-67
2023/10/23 09:29:27;;;;;;;;;19.00;16.50;;;;;9.71;97.72;101302.22;4970308;28;10557;-67
2023/10/23 09:31:55;;;;;;;;;26.00;19.75;;;;;9.66;97.64;101313.50;4970493;28;10784;-67
2023/10/23 09:34:22;;;;;;;;;19.00;18.25;;;;;9.65;98.30;101314.53;4970540;28;10903;-67
2023/10/23 09:36:50;;;;;;;;;15.00;15.00;;;;;9.67;98.55;101317.03;4952867;28;10800;-67
2023/10/23 09:39:18;;;;;;;;;20.00;15.75;;;;;9.71;98.85;101320.22;4970763;28;10933;-68
2023/10/23 09:41:45;;;;;;;;;27.75;22.00;;;;;9.73;98.44;101323.56;4970716;28;10719;-66
2023/10/23 09:44:15;;;;;;;;;22.00;21.25;;;;;9.71;98.40;101326.41;4970582;28;10849;-68
2023/10/23 09:46:42;;;;;;;;;19.50;18.25;;;;;9.74;99.02;101328.75;4969895;28;11486;-68
2023/10/23 09:49:10;;;;;;;;;22.25;20.75;;;;;9.77;99.15;101332.97;4970558;28;11338;-68
2023/10/23 09:51:39;;;;;;;;;27.75;18.25;;;;;9.79;98.68;101336.28;4970563;28;10810;-68
2023/10/23 09:54:19;;;;;;;;;23.00;22.25;;;;;9.80;98.69;101337.97;4970599;28;10920;-68
2023/10/23 09:56:47;;;;;;;;;21.50;17.75;;;;;9.81;99.31;101329.72;4970405;28;10853;-68
2023/10/23 09:59:17;;;;;;;;;15.75;15.25;;;;;9.86;98.97;101332.72;4970553;28;10797;-68
2023/10/23 10:01:48;;;;;;;;;19.25;14.50;;;;;9.89;98.90;101334.22;4970430;28;10811;-68
2023/10/23 10:04:33;;;;;;;;;22.00;19.25;;;;;9.94;99.05;101331.00;4970469;28;10543;-68
2023/10/23 10:07:23;;;;;;;;;20.00;17.75;;;;;10.00;98.66;101332.97;4970441;28;10807;-67
2023/10/23 10:09:50;;;;;;;;;20.00;16.50;;;;;10.01;99.30;101329.28;4970415;28;10932;-68
2023/10/23 10:12:18;;;;;;;;;17.00;15.00;;;;;10.07;99.25;101334.75;4970292;28;10662;-68
2023/10/23 10:14:46;;;;;;;;;16.25;15.75;;;;;10.13;99.54;101335.91;4952894;28;10541;-68
2023/10/23 10:17:16;;;;;;;;;16.75;16.25;;;;;10.21;98.98;101338.53;4969717;28;11516;-67
2023/10/23 10:19:44;;;;;;;;;19.50;17.50;;;;;10.20;98.91;101336.00;4970306;28;10707;-67
2023/10/23 10:22:17;;;;;;;;;24.75;23.50;;;;;10.21;99.02;101330.47;4970228;28;10809;-67
2023/10/23 10:24:45;;;;;;;;;20.00;18.00;;;;;10.23;99.29;101324.91;4970110;28;10962;-66
2023/10/23 10:27:13;;;;;;;;;29.75;25.75;;;;;10.26;99.10;101329.97;4969544;28;10817;-67
2023/10/23 10:29:40;;;;;;;;;22.50;20.00;;;;;10.32;99.16;101321.16;4970154;28;11550;-67
2023/10/23 10:32:09;;;;;;;;;27.25;24.50;;;;;10.32;98.81;101319.28;4969982;28;10833;-66
2023/10/23 10:34:45;;;;;;;;;25.50;20.75;;;;;10.37;99.00;101310.69;4969864;28;11546;-67
2023/10/23 10:37:13;;;;;;;;;21.75;19.50;;;;;10.43;99.38;101311.81;4969512;28;10740;-67
2023/10/23 10:39:46;;;;;;;;;27.00;25.25;;;;;10.47;99.15;101300.50;4970006;28;10704;-66
2023/10/23 10:42:22;;;;;;;;;25.50;22.75;;;;;10.52;99.17;101305.34;4973347;28;10845;-66
2023/10/23 10:44:52;;;;;;;;;26.50;24.00;;;;;10.52;99.27;101299.97;4973442;28;10807;-67
2023/10/23 10:47:45;;;;;;;;;29.50;24.00;;;;;10.56;99.22;101302.09;4972847;28;10832;-67
2023/10/23 10:50:12;;;;;;;;;23.50;22.25;;;;;10.59;99.81;101299.03;4973357;28;10920;-66
2023/10/23 10:52:42;;;;;;;;;30.75;23.75;;;;;10.63;99.89;101299.53;4973225;28;10831;-67
2023/10/23 10:55:10;;;;;;;;;21.75;19.50;;;;;10.67;99.80;101300.81;4973317;28;11413;-67
2023/10/23 10:57:41;;;;;;;;;23.25;21.25;;;;;10.69;99.96;101298.78;4972825;28;10836;-66
2023/10/23 11:00:11;;;;;;;;;30.50;26.50;;;;;10.73;99.86;101288.47;4973255;28;10837;-67
2023/10/23 11:02:39;;;;;;;;;19.00;18.00;;;;;10.72;100.00;101279.56;4973353;28;10827;-66
2023/10/23 11:05:10;;;;;;;;;18.25;18.25;;;;;10.78;100.00;101280.69;4955999;28;10631;-67
2023/10/23 11:07:37;;;;;;;;;17.50;17.00;;;;;10.83;99.93;101283.66;4972728;28;10709;-67
2023/10/23 11:10:05;;;;;;;;;24.25;20.00;;;;;10.86;99.59;101275.22;4973046;28;11223;-67
2023/10/23 11:12:31;;;;;;;;;27.50;24.50;;;;;10.89;99.59;101277.53;4973124;28;10510;-66
2023/10/23 11:14:58;;;;;;;;;20.00;19.00;;;;;10.89;99.52;101267.59;4972976;28;10668;-67
2023/10/23 11:17:24;;;;;;;;;22.50;21.00;;;;;10.92;99.54;101262.84;4973026;28;10649;-67